createdAt,value
2023-03-04T00:00:02.424Z,45.22
2023-03-04T00:02:37.307Z,43.42
2023-03-04T00:05:04.780Z,42.10
2023-03-04T00:07:31.733Z,38.60
2023-03-04T00:09:58.607Z,41.42
2023-03-04T00:12:25.904Z,38.80
2023-03-04T00:14:52.769Z,39.45
2023-03-04T00:17:19.682Z,39.00
2023-03-04T00:19:47.235Z,39.95
2023-03-04T00:22:14.188Z,40.78
2023-03-04T00:24:41.180Z,34.53
2023-03-04T00:27:08.502Z,45.47
2023-03-04T00:29:35.415Z,40.22
2023-03-04T00:32:02.824Z,33.67
2023-03-04T00:34:32.405Z,36.65
2023-03-04T00:37:01.594Z,38.67
2023-03-04T00:39:29.010Z,37.03
2023-03-04T00:41:55.943Z,32.33
2023-03-04T00:44:22.846Z,39.05
2023-03-04T00:46:49.902Z,39.72
2023-03-04T00:49:17.172Z,34.90
2023-03-04T00:51:44.027Z,36.30
2023-03-04T00:54:10.924Z,35.83
2023-03-04T00:56:37.895Z,34.83
2023-03-04T00:59:05.238Z,40.72
2023-03-04T01:01:32.816Z,39.55
2023-03-04T01:03:59.791Z,32.70
2023-03-04T01:06:27.350Z,35.97
2023-03-04T01:08:54.261Z,28.40
2023-03-04T01:11:21.526Z,28.27
2023-03-04T01:13:48.681Z,33.53
2023-03-04T01:16:15.837Z,33.08
2023-03-04T01:18:42.745Z,32.03
2023-03-04T01:21:09.640Z,38.83
2023-03-04T01:23:36.517Z,39.63
2023-03-04T01:26:03.609Z,29.38
2023-03-04T01:28:30.887Z,40.13
2023-03-04T01:30:57.697Z,31.67
2023-03-04T01:33:24.651Z,33.63
2023-03-04T01:35:51.628Z,32.75
2023-03-04T01:38:18.602Z,40.45
2023-03-04T01:40:45.594Z,33.05
2023-03-04T01:43:22.729Z,32.47
2023-03-04T01:45:50.742Z,33.45
2023-03-04T01:48:22.167Z,36.90
2023-03-04T01:50:49.932Z,31.45
2023-03-04T01:53:26.492Z,32.53
2023-03-04T01:56:12.891Z,34.80
2023-03-04T01:58:39.815Z,27.60
2023-03-04T02:01:06.680Z,26.00
2023-03-04T02:03:33.700Z,31.80
2023-03-04T02:06:01.960Z,32.95
2023-03-04T02:08:29.141Z,39.42
2023-03-04T02:10:57.595Z,37.70
2023-03-04T02:13:24.870Z,31.17
2023-03-04T02:15:52.154Z,38.25
2023-03-04T02:18:25.803Z,30.38
2023-03-04T02:21:15.203Z,29.92
2023-03-04T02:24:05.045Z,30.33
2023-03-04T02:26:33.854Z,28.70
2023-03-04T02:29:02.321Z,26.55
2023-03-04T02:31:41.646Z,25.08
2023-03-04T02:34:16.406Z,35.08
2023-03-04T02:36:45.512Z,24.38
2023-03-04T02:39:21.512Z,27.88
2023-03-04T02:41:51.964Z,31.05
2023-03-04T02:44:21.488Z,30.08
2023-03-04T02:46:50.485Z,22.98
2023-03-04T02:49:17.962Z,31.90
2023-03-04T02:51:44.940Z,29.05
2023-03-04T02:54:20.878Z,31.02
2023-03-04T02:56:49.349Z,32.90
2023-03-04T02:59:17.722Z,32.90
2023-03-04T03:01:45.255Z,27.10
2023-03-04T03:04:13.044Z,26.92
2023-03-04T03:06:40.678Z,34.80
2023-03-04T03:09:08.114Z,44.75
2023-03-04T03:11:35.566Z,27.52
2023-03-04T03:14:04.486Z,39.88
2023-03-04T03:16:31.624Z,25.58
2023-03-04T03:18:58.994Z,32.53
2023-03-04T03:21:29.167Z,30.50
2023-03-04T03:23:56.064Z,26.70
2023-03-04T03:26:22.983Z,32.88
2023-03-04T03:28:50.764Z,28.92
2023-03-04T03:31:17.754Z,31.75
2023-03-04T03:33:46.916Z,38.88
2023-03-04T03:36:13.904Z,34.15
2023-03-04T03:38:40.768Z,31.88
2023-03-04T03:41:07.671Z,29.55
2023-03-04T03:43:34.525Z,34.55
2023-03-04T03:46:01.497Z,33.00
2023-03-04T03:48:28.365Z,27.85
2023-03-04T03:50:55.229Z,28.50
2023-03-04T03:53:22.114Z,25.15
2023-03-04T03:55:49.433Z,34.58
2023-03-04T03:58:16.833Z,34.42
2023-03-04T04:00:43.745Z,25.15
2023-03-04T04:03:15.242Z,19.08
2023-03-04T04:05:42.128Z,31.52
2023-03-04T04:08:16.115Z,25.10
2023-03-04T04:10:43.623Z,19.02
2023-03-04T04:13:10.773Z,30.20
2023-03-04T04:15:38.817Z,23.50
2023-03-04T04:18:07.189Z,30.95
2023-03-04T04:20:34.462Z,26.95
2023-03-04T04:23:01.389Z,28.45
2023-03-04T04:25:28.301Z,26.33
2023-03-04T04:27:55.201Z,23.90
2023-03-04T04:30:22.589Z,27.67
2023-03-04T04:32:49.430Z,18.35
2023-03-04T04:35:16.367Z,24.35
2023-03-04T04:37:43.660Z,23.05
2023-03-04T04:40:11.199Z,25.15
2023-03-04T04:42:38.524Z,27.20
2023-03-04T04:45:06.048Z,20.65
2023-03-04T04:47:32.864Z,35.25
2023-03-04T04:49:59.760Z,20.50
2023-03-04T04:52:26.549Z,39.17
2023-03-04T04:54:53.438Z,18.92
2023-03-04T04:57:20.254Z,18.80
2023-03-04T04:59:47.087Z,18.15
2023-03-04T05:02:13.993Z,16.23
2023-03-04T05:04:40.932Z,18.42
2023-03-04T05:07:07.779Z,24.75
2023-03-04T05:09:34.884Z,24.85
2023-03-04T05:12:02.377Z,27.92
2023-03-04T05:14:29.300Z,30.52
2023-03-04T05:16:56.600Z,18.52
2023-03-04T05:19:23.424Z,15.68
2023-03-04T05:21:50.727Z,29.48
2023-03-04T05:24:17.618Z,17.77
2023-03-04T05:26:44.526Z,14.10
2023-03-04T05:29:11.391Z,15.77
2023-03-04T05:31:38.316Z,24.98
2023-03-04T05:34:05.247Z,17.08
2023-03-04T05:36:32.097Z,22.88
2023-03-04T05:38:59.071Z,28.02
2023-03-04T05:41:26.029Z,17.95
2023-03-04T05:43:53.352Z,14.45
2023-03-04T05:46:25.579Z,12.98
2023-03-04T05:48:54.088Z,16.77
2023-03-04T05:51:22.387Z,12.38
2023-03-04T05:53:49.885Z,23.45
2023-03-04T05:56:19.073Z,16.38
2023-03-04T06:01:14.956Z,8.82
2023-03-04T06:03:43.539Z,19.88
2023-03-04T06:06:11.185Z,16.88
2023-03-04T06:08:38.049Z,12.90
2023-03-04T06:11:05.721Z,19.42
2023-03-04T06:13:34.718Z,19.42
2023-03-04T06:16:02.288Z,22.08
2023-03-04T06:18:29.618Z,16.25
2023-03-04T06:20:58.798Z,17.70
2023-03-04T06:23:26.249Z,16.05
2023-03-04T06:25:55.050Z,15.30
2023-03-04T06:28:22.626Z,15.32
2023-03-04T06:30:53.115Z,15.23
2023-03-04T06:33:20.625Z,8.45
2023-03-04T06:35:48.057Z,21.67
2023-03-04T06:38:15.115Z,16.73
2023-03-04T06:40:42.489Z,13.00
2023-03-04T06:43:09.610Z,15.75
2023-03-04T06:45:39.444Z,14.27
2023-03-04T06:48:06.504Z,11.45
2023-03-04T06:50:33.422Z,6.45
2023-03-04T06:53:00.276Z,11.20
2023-03-04T06:55:27.244Z,14.48
2023-03-04T06:57:54.161Z,18.48
2023-03-04T07:00:24.068Z,8.48
2023-03-04T07:02:53.344Z,19.05
2023-03-04T07:05:21.815Z,14.15
2023-03-04T07:07:49.599Z,17.13
2023-03-04T07:10:18.383Z,13.02
2023-03-04T07:12:45.650Z,26.23
2023-03-04T07:15:12.578Z,21.27
2023-03-04T07:17:39.424Z,19.88
2023-03-04T07:20:07.029Z,16.50
2023-03-04T07:22:33.899Z,9.45
2023-03-04T07:25:00.936Z,14.63
2023-03-04T07:27:28.010Z,21.25
2023-03-04T07:29:55.032Z,20.05
2023-03-04T07:32:22.206Z,23.48
2023-03-04T07:34:49.126Z,19.67
2023-03-04T07:37:16.119Z,18.50
2023-03-04T07:39:46.144Z,17.33
2023-03-04T07:42:13.324Z,13.88
2023-03-04T07:44:42.146Z,12.60
2023-03-04T07:47:09.042Z,9.43
2023-03-04T07:49:35.921Z,12.13
2023-03-04T07:52:06.311Z,16.00
2023-03-04T07:57:00.095Z,10.57
2023-03-04T07:59:26.953Z,14.10
2023-03-04T08:01:54.208Z,11.45
2023-03-04T08:04:21.194Z,11.05
2023-03-04T08:06:48.925Z,8.60
2023-03-04T08:09:15.896Z,13.82
2023-03-04T08:11:44.096Z,13.93
2023-03-04T08:14:13.816Z,19.20
2023-03-04T08:16:40.818Z,12.75
2023-03-04T08:19:08.114Z,9.63
2023-03-04T08:21:35.397Z,8.55
2023-03-04T08:24:08.092Z,8.95
2023-03-04T08:26:41.311Z,14.98
2023-03-04T08:29:11.468Z,10.85
2023-03-04T08:31:39.467Z,13.30
2023-03-04T08:34:08.563Z,14.55
2023-03-04T08:36:35.707Z,8.77
2023-03-04T08:39:04.057Z,8.35
2023-03-04T08:41:31.337Z,16.08
2023-03-04T08:43:59.888Z,9.20
2023-03-04T08:46:26.834Z,5.55
2023-03-04T08:48:53.698Z,19.65
2023-03-04T08:51:20.949Z,4.32
2023-03-04T08:53:47.812Z,13.00
2023-03-04T08:56:15.430Z,12.43
2023-03-04T08:58:42.751Z,13.48
2023-03-04T09:01:11.998Z,4.70
2023-03-04T09:03:39.493Z,5.38
2023-03-04T09:06:07.636Z,11.75
2023-03-04T09:08:35.404Z,7.20
2023-03-04T09:11:02.738Z,9.95
2023-03-04T09:13:31.322Z,12.13
2023-03-04T09:15:59.111Z,11.18
2023-03-04T09:18:26.821Z,10.77
2023-03-04T09:20:54.451Z,11.40
2023-03-04T09:23:21.833Z,9.90
2023-03-04T09:25:49.877Z,14.85
2023-03-04T09:28:18.256Z,3.53
2023-03-04T09:30:45.282Z,10.05
2023-03-04T09:33:12.457Z,6.70
2023-03-04T09:35:39.592Z,8.02
2023-03-04T09:38:06.996Z,7.78
2023-03-04T09:40:46.576Z,5.93
2023-03-04T09:43:33.876Z,6.32
2023-03-04T09:46:04.628Z,4.68
2023-03-04T09:48:44.873Z,5.25
2023-03-04T09:51:54.515Z,10.15
2023-03-04T09:54:36.838Z,9.13
2023-03-04T09:57:30.158Z,6.53
2023-03-04T10:00:20.757Z,6.30
2023-03-04T10:02:53.434Z,11.68
2023-03-04T10:05:23.273Z,11.90
2023-03-04T10:07:58.016Z,9.73
2023-03-04T10:10:37.357Z,7.50
2023-03-04T10:13:06.368Z,7.90
2023-03-04T10:15:48.983Z,4.28
2023-03-04T10:18:20.578Z,5.97
2023-03-04T10:21:00.367Z,5.70
2023-03-04T10:23:29.633Z,5.20
2023-03-04T10:25:59.372Z,7.30
2023-03-04T10:28:30.229Z,3.42
2023-03-04T10:31:16.761Z,3.03
2023-03-04T10:33:43.908Z,12.60
2023-03-04T10:36:32.135Z,10.48
2023-03-04T10:39:06.799Z,6.18
2023-03-04T10:41:34.046Z,4.63
2023-03-04T10:44:10.492Z,13.45
2023-03-04T10:46:41.942Z,6.00
2023-03-04T10:49:11.378Z,17.88
2023-03-04T10:52:15.400Z,5.93
2023-03-04T10:54:48.928Z,4.75
2023-03-04T10:57:31.121Z,10.32
2023-03-04T11:00:00.097Z,5.97
2023-03-04T11:02:36.037Z,5.75
2023-03-04T11:05:24.163Z,3.60
2023-03-04T11:07:57.498Z,4.43
2023-03-04T11:10:36.911Z,8.57
2023-03-04T11:13:26.719Z,7.53
2023-03-04T11:15:59.534Z,6.78
2023-03-04T11:18:44.001Z,3.33
2023-03-04T11:21:22.572Z,5.82
2023-03-04T11:23:57.718Z,8.50
2023-03-04T11:26:45.529Z,13.88
2023-03-04T11:29:21.570Z,7.60
2023-03-04T11:32:04.424Z,4.70
2023-03-04T11:34:58.520Z,2.53
2023-03-04T11:37:55.521Z,8.02
2023-03-04T11:40:44.160Z,3.42
2023-03-04T11:43:17.410Z,4.68
2023-03-04T11:46:11.534Z,5.88
2023-03-04T11:49:07.163Z,6.57
2023-03-04T11:51:40.170Z,4.40
2023-03-04T11:54:23.538Z,5.15
2023-03-04T11:56:52.502Z,1.95
2023-03-04T11:59:28.366Z,3.75
2023-03-04T12:02:12.155Z,5.03
2023-03-04T12:04:44.839Z,1.88
2023-03-04T12:07:14.872Z,4.25
2023-03-04T12:09:56.723Z,6.25
2023-03-04T12:12:29.800Z,6.32
2023-03-04T12:15:39.803Z,5.75
2023-03-04T12:18:48.184Z,1.77
2023-03-04T12:21:37.803Z,3.03
2023-03-04T12:24:42.862Z,2.13
2023-03-04T12:27:45.129Z,1.35
2023-03-04T12:30:21.177Z,1.95
2023-03-04T12:33:11.894Z,1.88
2023-03-04T12:35:47.251Z,4.60
2023-03-04T12:38:34.345Z,3.72
2023-03-04T12:41:39.772Z,5.75
2023-03-04T12:44:23.299Z,2.55
2023-03-04T12:47:16.441Z,2.30
2023-03-04T12:50:03.030Z,3.85
2023-03-04T12:52:30.330Z,3.85
2023-03-04T12:55:02.600Z,3.45
2023-03-04T12:57:31.747Z,1.63
2023-03-04T13:00:26.351Z,4.88
2023-03-04T13:03:32.653Z,2.45
2023-03-04T13:06:18.847Z,5.70
2023-03-04T13:08:54.906Z,2.47
2023-03-04T13:11:31.347Z,3.40
2023-03-04T13:14:26.885Z,4.38
2023-03-04T13:17:01.786Z,7.82
2023-03-04T13:19:55.912Z,6.53
2023-03-04T13:22:37.999Z,8.18
2023-03-04T13:25:44.360Z,4.45
2023-03-04T13:28:11.422Z,4.32
2023-03-04T13:30:38.836Z,5.78
2023-03-04T13:33:08.845Z,4.75
2023-03-04T13:36:01.861Z,5.38
2023-03-04T13:38:32.544Z,3.40
2023-03-04T13:41:21.916Z,7.32
2023-03-04T13:43:52.114Z,4.03
2023-03-04T13:46:19.283Z,2.40
2023-03-04T13:48:52.433Z,3.13
2023-03-04T13:51:29.420Z,5.15
2023-03-04T13:54:13.059Z,2.47
2023-03-04T13:56:46.455Z,5.03
2023-03-04T13:59:26.332Z,5.35
2023-03-04T14:01:56.254Z,4.18
2023-03-04T14:04:28.713Z,7.72
2023-03-04T14:06:59.105Z,3.45
2023-03-04T14:11:57.751Z,4.10
2023-03-04T14:14:28.773Z,5.13
2023-03-04T14:17:02.194Z,8.90
2023-03-04T14:19:32.410Z,2.83
2023-03-04T14:22:00.921Z,5.90
2023-03-04T14:24:27.862Z,2.92
2023-03-04T14:27:12.018Z,7.55
2023-03-04T14:29:39.357Z,11.38
2023-03-04T14:32:07.474Z,2.22
2023-03-04T14:34:37.936Z,6.85
2023-03-04T14:39:50.175Z,8.68
2023-03-04T14:42:19.447Z,8.43
2023-03-04T14:44:49.984Z,5.82
2023-03-04T14:47:36.237Z,4.25
2023-03-04T14:50:12.623Z,3.78
2023-03-04T14:52:48.607Z,5.07
2023-03-04T14:55:15.462Z,10.68
2023-03-04T14:57:44.627Z,10.70
2023-03-04T15:00:20.678Z,8.88
2023-03-04T15:03:00.261Z,9.57
2023-03-04T15:05:27.566Z,6.75
2023-03-04T15:08:03.670Z,5.32
2023-03-04T15:10:36.572Z,9.23
2023-03-04T15:13:06.331Z,5.05
2023-03-04T15:15:40.027Z,7.05
2023-03-04T15:18:27.695Z,6.88
2023-03-04T15:21:20.442Z,6.30
2023-03-04T15:23:47.461Z,5.30
2023-03-04T15:26:14.527Z,8.80
2023-03-04T15:28:42.698Z,6.03
2023-03-04T15:31:18.018Z,3.92
2023-03-04T15:33:45.258Z,6.80
2023-03-04T15:36:18.682Z,6.38
2023-03-04T15:38:48.931Z,28.23
2023-03-04T15:41:24.780Z,81.25
2023-03-04T15:43:53.168Z,56.25
2023-03-04T15:46:21.113Z,5.15
2023-03-04T15:48:48.915Z,6.00
2023-03-04T15:51:22.356Z,5.85
2023-03-04T15:54:14.303Z,6.57
2023-03-04T15:56:41.550Z,4.13
2023-03-04T15:59:14.465Z,3.20
2023-03-04T16:01:41.572Z,2.97
2023-03-04T16:04:16.941Z,4.55
2023-03-04T16:06:45.495Z,8.10
2023-03-04T16:09:14.749Z,4.60
2023-03-04T16:11:45.617Z,7.95
2023-03-04T16:14:14.431Z,5.10
2023-03-04T16:16:42.113Z,9.15
2023-03-04T16:19:09.169Z,8.88
2023-03-04T16:21:36.272Z,6.57
2023-03-04T16:24:03.611Z,8.13
2023-03-04T16:26:31.194Z,7.57
2023-03-04T16:28:58.198Z,7.30
2023-03-04T16:31:25.251Z,10.10
2023-03-04T16:33:52.550Z,12.27
2023-03-04T16:36:23.408Z,12.68
2023-03-04T16:38:51.468Z,12.38
2023-03-04T16:41:22.967Z,20.73
2023-03-04T16:43:49.966Z,13.00
2023-03-04T16:46:16.937Z,10.65
2023-03-04T16:48:43.884Z,17.40
2023-03-04T16:51:19.843Z,14.52
2023-03-04T16:54:00.360Z,18.00
2023-03-04T16:56:27.878Z,20.90
2023-03-04T16:58:54.964Z,9.13
2023-03-04T17:01:25.721Z,17.15
2023-03-04T17:03:53.722Z,12.65
2023-03-04T17:06:23.802Z,14.55
2023-03-04T17:08:51.129Z,9.52
2023-03-04T17:11:23.364Z,16.23
2023-03-04T17:13:51.418Z,10.98
2023-03-04T17:16:18.899Z,16.85
2023-03-04T17:18:46.207Z,17.73
2023-03-04T17:21:16.331Z,9.93
2023-03-04T17:23:43.232Z,7.82
2023-03-04T17:26:10.451Z,8.00
2023-03-04T17:28:38.277Z,12.45
2023-03-04T17:31:17.576Z,12.60
2023-03-04T17:33:44.786Z,19.70
2023-03-04T17:36:13.094Z,17.55
2023-03-04T17:38:40.714Z,11.10
2023-03-04T17:41:11.011Z,16.60
2023-03-04T17:46:07.165Z,8.15
2023-03-04T17:48:34.674Z,8.23
2023-03-04T17:51:02.306Z,11.02
2023-03-04T17:53:29.773Z,10.13
2023-03-04T17:56:01.977Z,12.38
2023-03-04T17:58:34.074Z,9.25
2023-03-04T18:01:04.827Z,13.40
2023-03-04T18:03:35.155Z,13.25
2023-03-04T18:06:02.150Z,15.30
2023-03-04T18:08:29.046Z,9.27
2023-03-04T18:10:56.148Z,18.02
2023-03-04T18:13:23.514Z,18.35
2023-03-04T18:15:50.647Z,15.90
2023-03-04T18:18:18.206Z,11.88
2023-03-04T18:20:45.136Z,11.77
2023-03-04T18:23:12.260Z,6.63
2023-03-04T18:25:40.048Z,10.65
2023-03-04T18:28:07.191Z,13.48
2023-03-04T18:30:34.389Z,14.13
2023-03-04T18:33:02.673Z,9.55
2023-03-04T18:35:29.657Z,5.45
2023-03-04T18:38:00.192Z,11.02
2023-03-04T18:40:28.705Z,12.23
2023-03-04T18:42:57.283Z,10.20
2023-03-04T18:45:25.246Z,10.52
2023-03-04T18:47:55.516Z,10.95
2023-03-04T18:52:52.710Z,15.80
2023-03-04T18:55:20.862Z,12.82
2023-03-04T18:57:54.565Z,9.48
2023-03-04T19:00:23.647Z,14.35
2023-03-04T19:02:57.272Z,12.85
2023-03-04T19:05:27.792Z,10.25
2023-03-04T19:07:55.286Z,18.00
2023-03-04T19:10:23.951Z,7.50
2023-03-04T19:12:51.296Z,14.32
2023-03-04T19:15:18.779Z,15.15
2023-03-04T19:17:48.994Z,10.13
2023-03-04T19:22:43.894Z,14.95
2023-03-04T19:25:12.164Z,17.08
2023-03-04T19:27:39.318Z,8.85
2023-03-04T19:30:07.328Z,13.20
2023-03-04T19:32:34.405Z,13.93
2023-03-04T19:35:02.696Z,11.02
2023-03-04T19:37:29.687Z,11.68
2023-03-04T19:39:57.265Z,10.68
2023-03-04T19:42:30.448Z,11.13
2023-03-04T19:44:58.090Z,12.65
2023-03-04T19:47:27.943Z,12.43
2023-03-04T19:49:55.033Z,19.23
2023-03-04T19:52:22.571Z,15.35
2023-03-04T19:54:49.725Z,18.40
2023-03-04T19:57:16.746Z,20.77
2023-03-04T19:59:45.361Z,13.48
2023-03-04T20:02:12.884Z,12.70
2023-03-04T20:04:40.331Z,19.25
2023-03-04T20:07:07.569Z,14.52
2023-03-04T20:09:37.798Z,9.85
2023-03-04T20:12:06.208Z,10.30
2023-03-04T20:14:34.837Z,15.85
2023-03-04T20:17:03.791Z,12.52
2023-03-04T20:19:31.982Z,9.80
2023-03-04T20:21:58.891Z,11.10
2023-03-04T20:24:26.992Z,14.75
2023-03-04T20:26:54.327Z,18.48
2023-03-04T20:29:21.877Z,14.75
2023-03-04T20:31:49.421Z,9.45
2023-03-04T20:34:17.336Z,14.13
2023-03-04T20:36:44.917Z,15.63
2023-03-04T20:39:27.559Z,13.77
2023-03-04T20:41:59.043Z,18.13
2023-03-04T20:44:26.954Z,20.92
2023-03-04T20:46:54.564Z,16.02
2023-03-04T20:49:25.835Z,22.17
2023-03-04T20:51:55.111Z,17.17
2023-03-04T20:54:22.659Z,7.45
2023-03-04T20:56:50.007Z,13.98
2023-03-04T20:59:17.513Z,10.80
2023-03-04T21:01:47.933Z,16.83
2023-03-04T21:04:15.245Z,19.23
2023-03-04T21:06:42.344Z,9.48
2023-03-04T21:09:13.229Z,18.48
2023-03-04T21:11:41.063Z,16.85
2023-03-04T21:14:22.993Z,28.17
2023-03-04T21:16:55.287Z,13.88
2023-03-04T21:19:31.823Z,15.73
2023-03-04T21:22:00.783Z,10.85
2023-03-04T21:24:30.719Z,13.93
2023-03-04T21:26:58.484Z,20.23
2023-03-04T21:29:28.127Z,16.90
2023-03-04T21:32:01.532Z,13.65
2023-03-04T21:34:38.346Z,22.10
2023-03-04T21:37:05.977Z,15.05
2023-03-04T21:39:33.469Z,20.20
2023-03-04T21:42:00.889Z,15.15
2023-03-04T21:44:45.216Z,14.75
2023-03-04T21:47:15.286Z,17.25
2023-03-04T21:49:42.211Z,14.32
2023-03-04T21:52:09.212Z,16.52
2023-03-04T21:54:36.078Z,20.38
2023-03-04T21:57:03.185Z,15.45
2023-03-04T21:59:30.213Z,17.45
2023-03-04T22:01:57.143Z,15.73
2023-03-04T22:04:24.410Z,12.18
2023-03-04T22:06:51.347Z,13.80
2023-03-04T22:09:18.244Z,8.95
2023-03-04T22:11:45.246Z,10.57
2023-03-04T22:14:12.236Z,6.93
2023-03-04T22:16:54.149Z,12.80
2023-03-04T22:19:25.970Z,7.13
2023-03-04T22:21:53.758Z,10.82
2023-03-04T22:24:23.905Z,10.15
2023-03-04T22:26:51.260Z,8.32
2023-03-04T22:29:18.195Z,8.68
2023-03-04T22:31:45.731Z,16.75
2023-03-04T22:34:15.367Z,8.30
2023-03-04T22:36:44.709Z,16.73
2023-03-04T22:39:14.198Z,12.80
2023-03-04T22:41:41.583Z,6.43
2023-03-04T22:44:08.542Z,9.13
2023-03-04T22:46:38.401Z,8.45
2023-03-04T22:49:11.366Z,8.02
2023-03-04T22:51:41.455Z,6.32
2023-03-04T22:54:10.973Z,12.70
2023-03-04T22:56:39.179Z,13.63
2023-03-04T22:59:06.178Z,12.07
2023-03-04T23:01:33.101Z,17.48
2023-03-04T23:04:00.486Z,8.75
2023-03-04T23:06:30.227Z,13.40
2023-03-04T23:08:58.658Z,12.00
2023-03-04T23:11:28.422Z,11.90
2023-03-04T23:13:56.628Z,9.38
2023-03-04T23:16:25.621Z,9.95
2023-03-04T23:18:53.329Z,10.80
2023-03-04T23:21:24.943Z,8.48
2023-03-04T23:23:52.447Z,15.55
2023-03-04T23:26:20.681Z,11.95
2023-03-04T23:28:47.965Z,14.45
2023-03-04T23:31:15.054Z,4.15
2023-03-04T23:33:47.602Z,8.65
2023-03-04T23:36:17.413Z,9.98
2023-03-04T23:38:45.973Z,12.82
2023-03-04T23:41:17.988Z,7.78
2023-03-04T23:43:45.209Z,6.63
2023-03-04T23:46:12.787Z,8.40
2023-03-04T23:48:43.186Z,10.50
2023-03-04T23:53:39.140Z,13.48
2023-03-04T23:56:14.177Z,5.70
2023-03-04T23:58:42.700Z,7.60
